Time;durP1;ratioP1;P1;durP2;ratioP2;P2;SDS_P1;SDS_P2;PMS_P1;PMS_P2;Temp;Humidity;BMP_temperature;BMP_pressure;BME280_temperature;BME280_humidity;BME280_pressure;Samples;Min_cycle;Max_cycle;Signal;HPM_P1;HPM_P2
2020/12/29 00:00:29;;;;;;;1.13;0.90;;;6.00;99.90;;;;;;5051008;28;20205;-62
2020/12/29 00:02:55;;;;;;;1.23;1.00;;;6.20;99.90;;;;;;5051297;28;20694;-63
2020/12/29 00:05:21;;;;;;;1.70;0.90;;;6.20;99.90;;;;;;5050319;28;20233;-64
2020/12/29 00:07:53;;;;;;;2.20;1.20;;;6.30;99.90;;;;;;5050684;28;20256;-63
2020/12/29 00:10:20;;;;;;;3.33;0.90;;;6.40;99.90;;;;;;5050884;28;20222;-65
2020/12/29 00:12:48;;;;;;;1.37;0.80;;;6.50;99.90;;;;;;5051215;28;20212;-65
2020/12/29 00:15:14;;;;;;;1.10;0.70;;;6.60;99.90;;;;;;5049084;28;20751;-66
2020/12/29 00:17:40;;;;;;;0.73;0.63;;;6.70;99.90;;;;;;5050005;28;20247;-65
2020/12/29 00:20:06;;;;;;;1.97;0.93;;;6.70;99.90;;;;;;5049476;28;20197;-66
2020/12/29 00:22:33;;;;;;;0.60;0.60;;;6.70;99.90;;;;;;5050505;28;20209;-65
2020/12/29 00:24:59;;;;;;;0.90;0.80;;;6.70;99.90;;;;;;5049694;28;20717;-65
2020/12/29 00:27:25;;;;;;;1.07;0.80;;;6.70;99.90;;;;;;5050843;28;20653;-65
2020/12/29 00:29:52;;;;;;;1.00;0.90;;;6.70;99.90;;;;;;5054760;28;20484;-66
2020/12/29 00:32:19;;;;;;;2.07;0.80;;;6.70;99.90;;;;;;5071448;28;20201;-64
2020/12/29 00:34:46;;;;;;;0.97;0.80;;;6.80;99.90;;;;;;5070012;28;20652;-64
2020/12/29 00:37:12;;;;;;;0.83;0.80;;;6.80;99.90;;;;;;5070366;28;20272;-64
2020/12/29 00:39:38;;;;;;;0.70;0.60;;;6.90;99.90;;;;;;5069246;28;20208;-64
2020/12/29 00:42:04;;;;;;;1.40;0.90;;;6.90;99.90;;;;;;5069821;28;20204;-64
2020/12/29 00:44:31;;;;;;;1.67;0.90;;;6.80;99.90;;;;;;5069833;28;20228;-64
2020/12/29 00:46:58;;;;;;;0.50;0.50;;;6.90;99.90;;;;;;5069802;28;20250;-63
2020/12/29 00:49:24;;;;;;;1.33;0.80;;;6.80;99.90;;;;;;5055401;28;20319;-65
2020/12/29 00:51:52;;;;;;;0.50;0.50;;;6.70;99.90;;;;;;5049118;28;20221;-64
2020/12/29 00:54:18;;;;;;;1.00;0.80;;;6.70;99.90;;;;;;5048869;28;20234;-66
2020/12/29 00:56:44;;;;;;;0.70;0.70;;;6.60;99.90;;;;;;5049823;28;20212;-65
2020/12/29 00:59:11;;;;;;;1.17;0.67;;;6.60;99.90;;;;;;5049490;28;20202;-64
2020/12/29 01:01:37;;;;;;;0.80;0.67;;;6.70;99.90;;;;;;5049596;28;20209;-64
2020/12/29 01:04:04;;;;;;;1.70;0.90;;;6.70;99.90;;;;;;5049479;28;20291;-64
2020/12/29 01:06:30;;;;;;;0.90;0.53;;;6.80;99.90;;;;;;5049495;28;20210;-64
2020/12/29 01:08:57;;;;;;;1.13;0.80;;;6.90;99.90;;;;;;5049421;28;20209;-64
2020/12/29 01:11:23;;;;;;;0.67;0.57;;;6.90;99.90;;;;;;5045984;28;20233;-64
2020/12/29 01:13:50;;;;;;;2.90;2.23;;;6.90;99.90;;;;;;5030893;28;531918;-68
2020/12/29 01:16:16;;;;;;;2.47;1.63;;;6.90;99.90;;;;;;5050352;28;20670;-65
2020/12/29 01:18:42;;;;;;;1.07;0.80;;;7.00;99.90;;;;;;5050348;28;20206;-67
2020/12/29 01:21:10;;;;;;;0.83;0.67;;;6.90;99.90;;;;;;5050388;28;20198;-64
2020/12/29 01:23:36;;;;;;;1.63;0.83;;;6.90;99.90;;;;;;5050143;28;20580;-69
2020/12/29 01:26:02;;;;;;;0.90;0.80;;;7.00;99.90;;;;;;5052054;28;20208;-65
2020/12/29 01:28:29;;;;;;;1.10;0.73;;;7.00;99.90;;;;;;5053759;28;20664;-65
2020/12/29 01:30:55;;;;;;;0.70;0.60;;;7.00;99.90;;;;;;5053503;28;20225;-64
2020/12/29 01:33:21;;;;;;;1.37;0.60;;;7.00;99.90;;;;;;5053796;28;20685;-64
2020/12/29 01:35:48;;;;;;;0.77;0.70;;;6.80;99.90;;;;;;5053810;28;20249;-64
2020/12/29 01:38:15;;;;;;;2.03;0.70;;;6.90;99.90;;;;;;5053702;28;20209;-66
2020/12/29 01:40:42;;;;;;;0.70;0.47;;;6.90;99.90;;;;;;5053213;28;20236;-67
2020/12/29 01:43:09;;;;;;;0.40;0.30;;;6.90;99.90;;;;;;5053482;28;20201;-64
2020/12/29 01:45:35;;;;;;;0.90;0.80;;;7.00;99.90;;;;;;5053492;28;20230;-64
2020/12/29 01:48:01;;;;;;;0.70;0.60;;;7.10;99.90;;;;;;5053072;28;20310;-64
2020/12/29 01:50:27;;;;;;;0.60;0.60;;;7.20;99.90;;;;;;5053523;28;20274;-64
2020/12/29 01:52:58;;;;;;;1.53;1.13;;;7.10;99.90;;;;;;5053587;28;20213;-64
2020/12/29 01:55:26;;;;;;;0.93;0.70;;;7.10;99.90;;;;;;5052964;28;20221;-64
2020/12/29 01:57:52;;;;;;;1.17;0.97;;;7.20;99.90;;;;;;5053043;28;20259;-63
2020/12/29 02:00:18;;;;;;;0.80;0.63;;;7.30;99.90;;;;;;5053175;28;20197;-64
2020/12/29 02:02:46;;;;;;;3.17;0.80;;;7.40;99.90;;;;;;5053711;28;20233;-64
2020/12/29 02:05:12;;;;;;;0.93;0.80;;;7.40;99.90;;;;;;5052968;28;20720;-64
2020/12/29 02:07:39;;;;;;;1.60;1.03;;;7.40;99.90;;;;;;5053170;28;20261;-64
2020/12/29 02:10:06;;;;;;;0.33;0.30;;;7.60;99.90;;;;;;5053083;28;20221;-63
2020/12/29 02:12:34;;;;;;;1.37;0.53;;;7.50;99.90;;;;;;5053176;28;20210;-63
2020/12/29 02:15:02;;;;;;;0.47;0.30;;;7.50;99.90;;;;;;5052512;28;20233;-63
2020/12/29 02:17:28;;;;;;;0.30;0.30;;;7.50;99.90;;;;;;5052800;28;20213;-64
2020/12/29 02:19:54;;;;;;;1.37;0.30;;;7.50;99.90;;;;;;5052727;28;20208;-64
2020/12/29 02:22:23;;;;;;;0.43;0.43;;;7.50;99.90;;;;;;5052737;28;20210;-63
2020/12/29 02:24:51;;;;;;;0.60;0.30;;;7.50;99.90;;;;;;5052397;28;20230;-64
2020/12/29 02:27:17;;;;;;;0.30;0.30;;;7.50;99.90;;;;;;5052727;28;20259;-62
2020/12/29 02:29:44;;;;;;;1.40;0.43;;;7.50;99.90;;;;;;5052783;28;20206;-62
2020/12/29 02:32:10;;;;;;;2.93;1.63;;;7.50;99.90;;;;;;5052752;28;20451;-62
2020/12/29 02:34:37;;;;;;;0.60;0.30;;;7.50;99.90;;;;;;5052347;28;20741;-61
2020/12/29 02:37:07;;;;;;;0.80;0.50;;;7.50;99.90;;;;;;5052249;28;20239;-62
2020/12/29 02:39:36;;;;;;;0.43;0.40;;;7.50;99.90;;;;;;5052935;28;20205;-62
2020/12/29 02:42:03;;;;;;;0.40;0.30;;;7.50;99.90;;;;;;5052706;28;20205;-62
2020/12/29 02:44:29;;;;;;;0.20;0.20;;;7.60;99.90;;;;;;5052330;28;20580;-61
2020/12/29 02:46:55;;;;;;;0.30;0.30;;;7.40;99.90;;;;;;5053027;28;20209;-61
2020/12/29 02:49:21;;;;;;;0.20;0.20;;;7.50;99.90;;;;;;5052440;28;20228;-62
2020/12/29 02:51:47;;;;;;;0.63;0.30;;;7.60;99.90;;;;;;5052462;28;20221;-61
2020/12/29 02:54:14;;;;;;;0.43;0.30;;;7.60;99.90;;;;;;5052004;28;20625;-62
2020/12/29 02:56:42;;;;;;;0.30;0.30;;;7.50;99.90;;;;;;5052274;28;20202;-62
2020/12/29 02:59:09;;;;;;;0.27;0.27;;;7.50;99.90;;;;;;5051946;28;20213;-62
2020/12/29 03:01:35;;;;;;;0.20;0.20;;;7.50;99.90;;;;;;5052358;28;20204;-61
2020/12/29 03:04:02;;;;;;;0.37;0.13;;;7.50;99.90;;;;;;5051717;28;20225;-61
2020/12/29 03:06:28;;;;;;;0.20;0.20;;;7.60;99.90;;;;;;5052187;28;20211;-61
2020/12/29 03:08:54;;;;;;;0.50;0.20;;;7.60;99.90;;;;;;5051668;28;20673;-62
2020/12/29 03:11:25;;;;;;;0.67;0.30;;;7.70;99.90;;;;;;5051969;28;20225;-61
2020/12/29 03:13:53;;;;;;;1.50;0.30;;;7.70;99.90;;;;;;5052287;28;20268;-62
2020/12/29 03:16:19;;;;;;;0.40;0.27;;;7.60;99.90;;;;;;5051844;28;20209;-61
2020/12/29 03:18:46;;;;;;;0.30;0.20;;;7.60;99.90;;;;;;5051352;28;20681;-62
2020/12/29 03:21:12;;;;;;;0.93;0.20;;;7.60;99.90;;;;;;5051922;28;20236;-62
2020/12/29 03:23:38;;;;;;;0.73;0.30;;;7.60;99.90;;;;;;5051580;28;20213;-61
2020/12/29 03:26:05;;;;;;;0.10;0.10;;;7.60;99.90;;;;;;5051696;28;20213;-62
2020/12/29 03:28:31;;;;;;;0.63;0.30;;;7.60;99.90;;;;;;5051356;28;20718;-64
2020/12/29 03:30:58;;;;;;;0.10;0.10;;;7.60;99.90;;;;;;5051581;28;20225;-61
2020/12/29 03:33:24;;;;;;;0.40;0.30;;;7.70;99.90;;;;;;5051210;28;20558;-61
2020/12/29 03:35:50;;;;;;;0.33;0.30;;;7.60;99.90;;;;;;5051456;28;20260;-62
2020/12/29 03:38:16;;;;;;;0.20;0.13;;;7.60;99.90;;;;;;5051051;28;20677;-62
2020/12/29 03:40:43;;;;;;;0.10;0.10;;;7.60;99.90;;;;;;5051356;28;20202;-62
2020/12/29 03:43:12;;;;;;;0.90;0.30;;;7.70;99.90;;;;;;5051511;28;20212;-62
2020/12/29 03:45:39;;;;;;;0.23;0.20;;;7.70;99.90;;;;;;5051193;28;20225;-61
2020/12/29 03:48:07;;;;;;;0.70;0.20;;;7.70;99.90;;;;;;5051007;28;20255;-61
2020/12/29 03:50:34;;;;;;;0.47;0.13;;;7.70;99.90;;;;;;5051372;28;20221;-61
2020/12/29 03:53:00;;;;;;;0.10;0.10;;;7.70;99.90;;;;;;5051288;28;20251;-62
2020/12/29 03:55:26;;;;;;;0.30;0.20;;;7.70;99.90;;;;;;5051271;28;20394;-62
2020/12/29 03:57:52;;;;;;;0.97;0.50;;;7.60;99.90;;;;;;5051248;28;20606;-61
2020/12/29 04:00:18;;;;;;;0.67;0.30;;;7.60;99.90;;;;;;5051867;28;20588;-62
2020/12/29 04:02:44;;;;;;;1.27;0.20;;;7.40;99.90;;;;;;5052396;28;20319;-60
2020/12/29 04:05:11;;;;;;;0.50;0.20;;;7.60;99.90;;;;;;5051124;28;20275;-61
2020/12/29 04:07:38;;;;;;;0.53;0.30;;;7.50;99.90;;;;;;5051489;28;20212;-62
2020/12/29 04:10:04;;;;;;;0.23;0.20;;;7.50;99.90;;;;;;5050882;28;20235;-61
2020/12/29 04:12:30;;;;;;;1.23;0.20;;;7.40;99.90;;;;;;5051187;28;20719;-62
2020/12/29 04:14:56;;;;;;;0.20;0.10;;;7.30;99.90;;;;;;5050616;28;20237;-61
2020/12/29 04:17:23;;;;;;;0.17;0.17;;;7.30;99.90;;;;;;5050791;28;20840;-61
2020/12/29 04:19:49;;;;;;;0.77;0.27;;;7.20;99.90;;;;;;5051033;28;20202;-63
2020/12/29 04:22:16;;;;;;;0.93;0.30;;;7.20;99.90;;;;;;5050869;28;20721;-60
2020/12/29 04:24:42;;;;;;;0.63;0.33;;;7.20;99.90;;;;;;5050669;28;20221;-62
2020/12/29 04:27:09;;;;;;;0.20;0.20;;;7.20;99.90;;;;;;5051184;28;20634;-62
2020/12/29 04:29:35;;;;;;;0.60;0.30;;;7.10;99.90;;;;;;5050348;28;20697;-61
2020/12/29 04:32:01;;;;;;;2.53;0.30;;;7.20;99.90;;;;;;5050671;28;20286;-60
2020/12/29 04:34:27;;;;;;;1.17;0.20;;;7.10;99.90;;;;;;5050194;28;20230;-61
2020/12/29 04:36:54;;;;;;;0.90;0.37;;;7.20;99.90;;;;;;5050570;28;20260;-61
2020/12/29 04:39:21;;;;;;;1.33;0.30;;;7.20;99.90;;;;;;5050531;28;20595;-60
2020/12/29 04:41:52;;;;;;;0.53;0.20;;;7.20;99.90;;;;;;5050830;28;20288;-62
2020/12/29 04:44:19;;;;;;;0.67;0.20;;;7.10;99.90;;;;;;5050365;28;20225;-60
2020/12/29 04:46:45;;;;;;;0.40;0.20;;;7.10;99.90;;;;;;5050484;28;20210;-61
2020/12/29 04:49:12;;;;;;;0.40;0.30;;;7.00;99.90;;;;;;5050289;28;20205;-62
2020/12/29 04:51:39;;;;;;;1.40;0.40;;;7.00;99.90;;;;;;5050284;28;20678;-62
2020/12/29 04:54:07;;;;;;;1.27;0.40;;;7.00;99.90;;;;;;5050299;28;20225;-62
2020/12/29 04:56:35;;;;;;;0.77;0.20;;;7.00;99.90;;;;;;5050812;28;20209;-61
2020/12/29 04:59:04;;;;;;;0.57;0.20;;;7.00;99.90;;;;;;5050188;28;20597;-61
2020/12/29 05:01:31;;;;;;;0.67;0.37;;;7.00;99.90;;;;;;5052991;28;20208;-62
2020/12/29 05:03:58;;;;;;;0.20;0.20;;;7.00;99.90;;;;;;5054533;28;20229;-61
2020/12/29 05:06:24;;;;;;;0.57;0.20;;;7.00;99.90;;;;;;5054268;28;20209;-61
2020/12/29 05:08:52;;;;;;;1.53;0.30;;;6.90;99.90;;;;;;5054184;28;20210;-61
2020/12/29 05:11:20;;;;;;;0.77;0.40;;;6.80;99.90;;;;;;5054381;28;20263;-61
2020/12/29 05:13:47;;;;;;;0.57;0.30;;;7.00;99.90;;;;;;5053791;28;20205;-61
2020/12/29 05:16:14;;;;;;;1.27;0.30;;;7.00;99.90;;;;;;5054127;28;20212;-61
2020/12/29 05:18:43;;;;;;;0.73;0.40;;;7.00;99.90;;;;;;5053806;28;20213;-62
2020/12/29 05:21:09;;;;;;;0.53;0.30;;;7.00;99.90;;;;;;5054121;28;20205;-62
2020/12/29 05:23:36;;;;;;;0.60;0.20;;;7.10;99.90;;;;;;5053648;28;20206;-62
2020/12/29 05:26:02;;;;;;;1.07;0.40;;;6.90;99.90;;;;;;5054293;28;20296;-60
2020/12/29 05:28:29;;;;;;;1.47;0.60;;;6.90;99.90;;;;;;5053931;28;20210;-61
2020/12/29 05:30:57;;;;;;;2.30;0.40;;;7.00;99.90;;;;;;5053935;28;20225;-62
2020/12/29 05:33:23;;;;;;;0.70;0.43;;;7.00;99.90;;;;;;5053586;28;20209;-62
2020/12/29 05:35:51;;;;;;;0.50;0.30;;;7.10;99.90;;;;;;5053754;28;20229;-62
2020/12/29 05:38:18;;;;;;;1.40;0.43;;;7.10;99.90;;;;;;5053568;28;20208;-62
2020/12/29 05:40:46;;;;;;;1.37;0.60;;;7.10;99.90;;;;;;5053769;28;20205;-61
2020/12/29 05:43:12;;;;;;;1.00;0.40;;;7.20;99.90;;;;;;5053622;28;20581;-62
2020/12/29 05:45:39;;;;;;;2.07;0.47;;;7.30;99.90;;;;;;5053110;28;20256;-61
2020/12/29 05:48:06;;;;;;;0.43;0.43;;;7.20;99.90;;;;;;5053449;28;20292;-62
2020/12/29 05:50:33;;;;;;;0.73;0.30;;;7.20;99.90;;;;;;5053547;28;20221;-61
2020/12/29 05:53:01;;;;;;;1.53;0.63;;;7.10;99.90;;;;;;5053451;28;20205;-61
2020/12/29 05:55:27;;;;;;;1.40;0.30;;;7.10;99.90;;;;;;5053067;28;20271;-61
2020/12/29 05:58:07;;;;;;;0.70;0.30;;;7.00;99.90;;;;;;5052948;28;20579;-62
2020/12/29 06:00:35;;;;;;;0.90;0.30;;;7.00;99.90;;;;;;5053355;28;20201;-62
2020/12/29 06:03:03;;;;;;;0.67;0.30;;;7.00;99.90;;;;;;5053318;28;20286;-61
2020/12/29 06:05:31;;;;;;;1.33;0.50;;;6.90;99.90;;;;;;5053142;28;20222;-61
2020/12/29 06:07:58;;;;;;;1.13;0.40;;;7.00;99.90;;;;;;5052643;28;20706;-61
2020/12/29 06:10:25;;;;;;;1.37;0.80;;;7.10;99.90;;;;;;5053016;28;20229;-62
2020/12/29 06:12:54;;;;;;;0.40;0.30;;;7.00;99.90;;;;;;5051806;28;20697;-62
2020/12/29 06:15:25;;;;;;;1.13;0.60;;;7.10;99.90;;;;;;5052557;28;20233;-62
2020/12/29 06:17:56;;;;;;;0.90;0.30;;;7.00;99.90;;;;;;5053183;28;20561;-62
2020/12/29 06:20:22;;;;;;;0.70;0.10;;;6.90;99.90;;;;;;5052961;28;20232;-61
2020/12/29 06:22:52;;;;;;;0.23;0.23;;;6.90;99.90;;;;;;5053027;28;20213;-62
2020/12/29 06:25:19;;;;;;;1.47;0.70;;;6.70;99.90;;;;;;5052471;28;20226;-62
2020/12/29 06:27:51;;;;;;;0.47;0.40;;;6.70;99.90;;;;;;5052718;28;20292;-61
2020/12/29 06:30:21;;;;;;;0.93;0.63;;;6.70;99.90;;;;;;5052713;28;20300;-61
2020/12/29 06:32:50;;;;;;;1.80;0.93;;;6.80;99.90;;;;;;5052773;28;20209;-61
2020/12/29 06:35:17;;;;;;;2.00;0.43;;;6.80;99.90;;;;;;5052356;28;20229;-62
2020/12/29 06:37:51;;;;;;;2.87;0.50;;;6.70;99.90;;;;;;5052395;28;20201;-62
2020/12/29 06:40:19;;;;;;;1.40;0.70;;;6.60;99.90;;;;;;5052771;28;20737;-61
2020/12/29 06:42:47;;;;;;;6.43;2.13;;;6.60;99.90;;;;;;5052529;28;20669;-62
2020/12/29 06:45:13;;;;;;;1.33;0.60;;;6.70;99.90;;;;;;5052240;28;20233;-62
2020/12/29 06:47:43;;;;;;;1.97;0.50;;;6.70;99.90;;;;;;5052411;28;20213;-61
2020/12/29 06:50:23;;;;;;;1.67;0.83;;;6.60;99.90;;;;;;5052322;28;20216;-62
2020/12/29 06:52:54;;;;;;;3.00;0.90;;;6.70;99.90;;;;;;5052535;28;20205;-62
2020/12/29 06:55:21;;;;;;;2.97;0.97;;;6.70;99.90;;;;;;5051968;28;20313;-62
2020/12/29 06:57:49;;;;;;;2.03;0.87;;;6.70;99.90;;;;;;5051977;28;20206;-61
2020/12/29 07:00:17;;;;;;;1.33;0.53;;;6.80;99.90;;;;;;5052113;28;20217;-62
2020/12/29 07:02:46;;;;;;;1.67;0.53;;;6.70;99.90;;;;;;5051922;28;20739;-62
2020/12/29 07:05:13;;;;;;;2.00;0.73;;;6.60;99.90;;;;;;5051918;28;20234;-62
2020/12/29 07:07:46;;;;;;;2.03;1.10;;;6.70;99.90;;;;;;5051967;28;20221;-61
2020/12/29 07:10:14;;;;;;;2.07;1.17;;;6.80;99.90;;;;;;5052195;28;20212;-61
2020/12/29 07:12:46;;;;;;;1.87;0.40;;;6.90;99.90;;;;;;5051815;28;20259;-61
2020/12/29 07:15:19;;;;;;;1.37;0.57;;;7.00;99.90;;;;;;5051399;28;20233;-60
2020/12/29 07:17:59;;;;;;;7.40;3.93;;;7.00;99.90;;;;;;5051774;28;20263;-62
2020/12/29 07:20:29;;;;;;;2.33;0.70;;;7.00;99.90;;;;;;5052103;28;20410;-62
2020/12/29 07:23:04;;;;;;;5.70;2.57;;;7.00;99.90;;;;;;5051345;28;20206;-62
2020/12/29 07:25:31;;;;;;;5.00;3.20;;;7.10;99.90;;;;;;5051399;28;20225;-61
2020/12/29 07:28:04;;;;;;;3.23;2.93;;;7.00;99.90;;;;;;5051116;28;20681;-62
2020/12/29 07:30:31;;;;;;;1.93;0.77;;;7.20;99.90;;;;;;5051553;28;20697;-62
2020/12/29 07:32:59;;;;;;;1.33;0.57;;;7.30;99.90;;;;;;5051446;28;20209;-61
2020/12/29 07:35:28;;;;;;;0.57;0.20;;;7.40;99.90;;;;;;5051142;28;20229;-62
2020/12/29 07:37:56;;;;;;;1.00;0.30;;;7.30;99.90;;;;;;5051170;28;20453;-62
2020/12/29 07:40:24;;;;;;;1.90;0.50;;;7.30;99.90;;;;;;5051207;28;20300;-61
2020/12/29 07:42:50;;;;;;;1.10;0.60;;;7.40;99.90;;;;;;5051198;28;20217;-61
2020/12/29 07:45:17;;;;;;;0.60;0.33;;;7.30;99.90;;;;;;5051121;28;20226;-61
2020/12/29 07:47:44;;;;;;;1.20;0.40;;;7.40;99.90;;;;;;5051090;28;20259;-62
2020/12/29 07:50:10;;;;;;;2.77;0.40;;;7.50;99.90;;;;;;5051367;28;20208;-62
2020/12/29 07:52:36;;;;;;;1.23;0.37;;;7.40;99.90;;;;;;5051453;28;20255;-62
2020/12/29 07:55:10;;;;;;;0.93;0.50;;;7.30;99.90;;;;;;5051015;28;20229;-62
2020/12/29 07:57:37;;;;;;;1.07;0.53;;;7.30;99.90;;;;;;5051513;28;20217;-61
2020/12/29 08:00:08;;;;;;;0.80;0.40;;;7.30;99.90;;;;;;5051490;28;20209;-62
2020/12/29 08:02:35;;;;;;;1.27;0.60;;;7.50;99.90;;;;;;5051276;28;20236;-62
2020/12/29 08:05:02;;;;;;;1.53;0.60;;;7.50;99.90;;;;;;5050635;28;20221;-62
2020/12/29 08:07:28;;;;;;;2.17;0.40;;;7.60;99.90;;;;;;5051025;28;20808;-62
2020/12/29 08:09:55;;;;;;;1.33;0.50;;;7.70;99.90;;;;;;5050833;28;20584;-62
2020/12/29 08:12:21;;;;;;;1.70;0.53;;;7.80;99.90;;;;;;5050907;28;20225;-61
2020/12/29 08:14:47;;;;;;;1.17;0.30;;;7.70;99.90;;;;;;5050458;28;20295;-61
2020/12/29 08:17:13;;;;;;;0.63;0.47;;;7.70;99.90;;;;;;5050755;28;20217;-62
2020/12/29 08:19:40;;;;;;;2.43;1.77;;;7.50;99.90;;;;;;5050510;28;20216;-62
2020/12/29 08:22:07;;;;;;;0.80;0.30;;;7.40;99.90;;;;;;5051220;28;20213;-62
2020/12/29 08:24:34;;;;;;;0.33;0.30;;;7.20;99.90;;;;;;5050611;28;20836;-62
2020/12/29 08:27:01;;;;;;;0.57;0.43;;;7.10;99.90;;;;;;5050883;28;20210;-62
2020/12/29 08:29:28;;;;;;;0.47;0.33;;;7.10;99.90;;;;;;5050377;28;20244;-66
2020/12/29 08:32:05;;;;;;;0.43;0.40;;;7.20;99.90;;;;;;5050497;28;20304;-62
2020/12/29 08:34:33;;;;;;;0.67;0.60;;;7.20;99.90;;;;;;5049892;28;20274;-61
2020/12/29 08:37:01;;;;;;;1.00;0.50;;;7.20;99.90;;;;;;5050675;28;20241;-62
2020/12/29 08:39:47;;;;;;;0.40;0.30;;;7.30;99.90;;;;;;5050413;28;20217;-62
2020/12/29 08:42:17;;;;;;;0.33;0.33;;;7.20;99.90;;;;;;5050714;28;20566;-61
2020/12/29 08:44:44;;;;;;;0.40;0.30;;;7.20;99.90;;;;;;5050213;28;20225;-61
2020/12/29 08:47:11;;;;;;;0.80;0.67;;;7.20;99.90;;;;;;5050589;28;20251;-62
2020/12/29 08:49:38;;;;;;;0.40;0.40;;;7.20;99.90;;;;;;5050331;28;20205;-61
2020/12/29 08:52:05;;;;;;;0.80;0.47;;;7.20;99.90;;;;;;5050364;28;20232;-62
2020/12/29 08:54:36;;;;;;;0.37;0.37;;;7.30;99.90;;;;;;5050156;28;20230;-61
2020/12/29 08:57:05;;;;;;;2.23;1.30;;;7.30;99.90;;;;;;5050638;28;20297;-62
2020/12/29 08:59:39;;;;;;;0.83;0.50;;;7.30;99.90;;;;;;5050101;28;20244;-63
2020/12/29 09:02:05;;;;;;;3.30;1.97;;;7.30;99.90;;;;;;5050380;28;20547;-62
2020/12/29 09:04:34;;;;;;;2.27;1.37;;;7.30;99.90;;;;;;5050410;28;20236;-62
2020/12/29 09:07:06;;;;;;;0.80;0.80;;;7.20;99.90;;;;;;5050751;28;20229;-61
2020/12/29 09:09:34;;;;;;;0.80;0.50;;;7.20;99.90;;;;;;5050394;28;20202;-62
2020/12/29 09:12:08;;;;;;;2.13;0.70;;;7.20;99.90;;;;;;5050168;28;20222;-62
2020/12/29 09:14:35;;;;;;;1.00;0.63;;;7.10;99.90;;;;;;5079212;23;20236;-61
2020/12/29 09:17:03;;;;;;;1.50;0.77;;;7.10;99.90;;;;;;5072196;28;20284;-60
2020/12/29 09:19:30;;;;;;;1.00;0.70;;;7.20;99.90;;;;;;5072787;28;20201;-60
2020/12/29 09:22:10;;;;;;;1.07;0.60;;;7.20;99.90;;;;;;5072823;28;20201;-60
2020/12/29 09:24:37;;;;;;;0.80;0.70;;;7.20;99.90;;;;;;5071554;28;20232;-60
2020/12/29 09:27:05;;;;;;;2.50;1.00;;;7.20;99.90;;;;;;5071837;28;20209;-60
2020/12/29 09:29:34;;;;;;;1.27;0.90;;;7.30;99.90;;;;;;5071204;28;20569;-60
2020/12/29 09:32:01;;;;;;;1.60;1.00;;;7.40;99.90;;;;;;5071665;28;20259;-61
2020/12/29 09:34:27;;;;;;;1.83;1.10;;;7.40;99.90;;;;;;5071043;28;20221;-65
2020/12/29 09:36:54;;;;;;;1.67;0.90;;;7.50;99.90;;;;;;5071883;28;20361;-62
2020/12/29 09:39:21;;;;;;;1.43;0.90;;;7.60;99.90;;;;;;5070726;28;20216;-61
2020/12/29 09:41:55;;;;;;;2.20;1.37;;;7.70;99.90;;;;;;5071207;28;20246;-61
2020/12/29 09:44:22;;;;;;;2.47;0.83;;;7.70;99.90;;;;;;5071000;28;20262;-62
2020/12/29 09:46:48;;;;;;;1.73;0.70;;;7.80;99.90;;;;;;5072098;28;20201;-62
2020/12/29 09:49:14;;;;;;;1.47;0.43;;;7.80;99.90;;;;;;5074210;28;20220;-62
2020/12/29 09:51:40;;;;;;;5.80;1.27;;;7.90;99.90;;;;;;5074292;28;20259;-61
2020/12/29 09:54:06;;;;;;;2.80;0.93;;;7.80;99.90;;;;;;5073854;28;20209;-61
2020/12/29 09:56:33;;;;;;;1.70;0.47;;;7.90;99.90;;;;;;5074130;28;20219;-61
2020/12/29 09:59:00;;;;;;;1.73;0.87;;;7.90;99.90;;;;;;5073871;28;20208;-61
2020/12/29 10:01:26;;;;;;;0.77;0.50;;;7.90;99.90;;;;;;5073971;28;20390;-61
2020/12/29 10:03:52;;;;;;;0.87;0.30;;;7.90;99.90;;;;;;5073274;28;20247;-62
2020/12/29 10:06:18;;;;;;;1.40;0.70;;;8.00;99.90;;;;;;5073897;28;20219;-62
2020/12/29 10:08:45;;;;;;;0.77;0.67;;;8.00;99.90;;;;;;5073888;28;20690;-62
2020/12/29 10:11:12;;;;;;;1.27;0.70;;;8.10;99.90;;;;;;5074126;28;20224;-62
2020/12/29 10:13:39;;;;;;;4.10;1.07;;;8.20;99.90;;;;;;5073454;28;20201;-62
2020/12/29 10:16:05;;;;;;;1.57;0.70;;;8.20;99.90;;;;;;5073535;28;20236;-62
2020/12/29 10:18:32;;;;;;;1.60;0.90;;;8.30;99.90;;;;;;5073533;28;20209;-62
2020/12/29 10:20:58;;;;;;;4.97;0.80;;;8.40;99.90;;;;;;5073282;28;20240;-62
2020/12/29 10:23:25;;;;;;;6.87;1.03;;;8.50;99.90;;;;;;5073432;28;20217;-62
2020/12/29 10:25:51;;;;;;;2.87;0.80;;;8.60;99.90;;;;;;5074133;28;20257;-57
2020/12/29 10:28:19;;;;;;;4.23;0.70;;;8.60;99.90;;;;;;5073081;28;20209;-58
2020/12/29 10:30:47;;;;;;;1.80;0.77;;;8.50;99.90;;;;;;5073195;28;20269;-57
2020/12/29 10:33:13;;;;;;;6.27;2.60;;;8.70;99.90;;;;;;5073355;28;20208;-58
2020/12/29 10:35:40;;;;;;;2.80;1.73;;;8.90;99.90;;;;;;5073367;28;20228;-62
2020/12/29 10:38:06;;;;;;;1.77;0.80;;;8.90;99.90;;;;;;5075217;28;20676;-62
2020/12/29 10:40:32;;;;;;;16.40;1.63;;;9.10;99.90;;;;;;5075526;28;20208;-62
2020/12/29 10:42:58;;;;;;;4.97;1.20;;;9.10;99.90;;;;;;5075460;28;20587;-61
2020/12/29 10:45:25;;;;;;;6.37;1.33;;;9.20;99.90;;;;;;5074543;28;20220;-62
2020/12/29 10:47:52;;;;;;;7.57;1.57;;;9.20;99.90;;;;;;5073506;28;20676;-62
2020/12/29 10:50:18;;;;;;;1.37;0.50;;;9.20;99.90;;;;;;5073762;28;20208;-62
2020/12/29 10:52:44;;;;;;;1.40;0.60;;;9.20;99.90;;;;;;5073374;28;20231;-62
2020/12/29 10:55:10;;;;;;;8.10;3.50;;;9.30;99.90;;;;;;5073585;28;20232;-62
2020/12/29 10:57:36;;;;;;;2.73;1.10;;;9.30;99.90;;;;;;5073712;28;20212;-62
2020/12/29 11:00:04;;;;;;;4.37;2.33;;;9.40;99.90;;;;;;5072724;28;20216;-62
2020/12/29 11:02:30;;;;;;;3.27;1.23;;;9.40;99.90;;;;;;5072867;28;20205;-62
2020/12/29 11:04:57;;;;;;;5.30;1.57;;;9.30;99.90;;;;;;5072632;28;20224;-62
2020/12/29 11:07:23;;;;;;;7.47;1.23;;;9.50;99.90;;;;;;5073567;28;20204;-62
2020/12/29 11:09:49;;;;;;;1.80;1.40;;;9.40;99.90;;;;;;5073849;28;20205;-62
2020/12/29 11:12:16;;;;;;;7.80;5.17;;;9.50;99.90;;;;;;5073332;28;20711;-62
2020/12/29 11:14:42;;;;;;;4.90;2.93;;;9.70;99.90;;;;;;5072530;28;20228;-61
2020/12/29 11:17:08;;;;;;;2.17;1.53;;;9.70;99.90;;;;;;5073884;28;20273;-61
2020/12/29 11:19:34;;;;;;;2.83;1.60;;;9.60;99.90;;;;;;5073526;28;20220;-62
2020/12/29 11:22:01;;;;;;;3.10;1.50;;;9.60;99.90;;;;;;5072886;28;20586;-62
2020/12/29 11:24:27;;;;;;;3.50;2.50;;;9.60;99.90;;;;;;5072030;28;20225;-62
2020/12/29 11:26:53;;;;;;;2.47;1.10;;;9.60;99.90;;;;;;5072503;28;20200;-62
2020/12/29 11:29:20;;;;;;;4.30;3.50;;;9.70;99.90;;;;;;5072124;28;20216;-62
2020/12/29 11:31:46;;;;;;;1.77;1.10;;;9.80;99.90;;;;;;5072236;28;20278;-62
2020/12/29 11:34:12;;;;;;;1.23;1.10;;;9.90;99.90;;;;;;5071837;28;20225;-62
2020/12/29 11:36:38;;;;;;;1.57;0.80;;;9.80;99.90;;;;;;5072385;28;20266;-62
2020/12/29 11:39:05;;;;;;;1.87;0.90;;;9.80;99.90;;;;;;5071928;28;20212;-62
2020/12/29 11:41:31;;;;;;;1.43;0.60;;;9.90;99.90;;;;;;5072251;28;20234;-63
2020/12/29 11:43:57;;;;;;;0.73;0.50;;;9.90;99.90;;;;;;5071567;28;20209;-61
2020/12/29 11:46:24;;;;;;;0.70;0.63;;;10.00;99.90;;;;;;5072456;28;20204;-62
2020/12/29 11:48:50;;;;;;;0.30;0.23;;;9.90;99.90;;;;;;5071970;28;20197;-62
2020/12/29 11:51:16;;;;;;;1.03;0.50;;;9.90;99.90;;;;;;5072098;28;20239;-62
2020/12/29 11:53:42;;;;;;;1.03;0.40;;;10.00;99.90;;;;;;5072278;28;20841;-62
2020/12/29 11:56:11;;;;;;;1.67;0.73;;;10.10;99.90;;;;;;5072267;28;20712;-62
2020/12/29 11:58:37;;;;;;;1.00;0.73;;;10.00;99.70;;;;;;5071738;28;20205;-61
2020/12/29 12:01:04;;;;;;;1.00;0.67;;;9.70;99.90;;;;;;5072444;28;20205;-62
2020/12/29 12:03:30;;;;;;;1.10;0.50;;;9.70;99.90;;;;;;5072053;28;20614;-62
2020/12/29 12:05:56;;;;;;;2.23;0.60;;;9.60;99.90;;;;;;5072229;28;20225;-62
2020/12/29 12:08:23;;;;;;;0.90;0.60;;;9.60;99.90;;;;;;5071964;28;20680;-62
2020/12/29 12:10:50;;;;;;;2.17;0.50;;;9.60;99.90;;;;;;5071652;28;20209;-63
2020/12/29 12:13:17;;;;;;;3.43;1.10;;;9.60;99.90;;;;;;5072004;28;20569;-62
2020/12/29 12:15:43;;;;;;;1.33;0.60;;;9.70;99.90;;;;;;5072181;28;20294;-62
2020/12/29 12:18:09;;;;;;;1.10;0.70;;;9.80;99.90;;;;;;5071798;28;20234;-62
2020/12/29 12:20:35;;;;;;;0.60;0.60;;;9.90;99.90;;;;;;5072996;28;20231;-62
2020/12/29 12:23:02;;;;;;;2.30;0.90;;;9.80;99.70;;;;;;5073133;28;20213;-62
2020/12/29 12:25:28;;;;;;;1.53;0.97;;;9.80;99.60;;;;;;5072235;28;20228;-62
2020/12/29 12:27:55;;;;;;;2.33;1.00;;;9.90;99.80;;;;;;5071993;28;20201;-62
2020/12/29 12:30:22;;;;;;;1.33;1.00;;;10.00;99.40;;;;;;5072120;28;20205;-63
2020/12/29 12:32:48;;;;;;;1.77;0.80;;;10.20;99.30;;;;;;5071752;28;20224;-62
2020/12/29 12:35:14;;;;;;;2.43;0.53;;;10.40;99.20;;;;;;5070873;28;20620;-62
2020/12/29 12:37:40;;;;;;;0.90;0.60;;;10.50;98.40;;;;;;5071692;28;20254;-62
2020/12/29 12:40:06;;;;;;;5.17;0.83;;;10.50;98.30;;;;;;5071185;28;20209;-62
2020/12/29 12:42:32;;;;;;;2.07;0.77;;;10.40;98.10;;;;;;5071568;28;20209;-62
2020/12/29 12:44:59;;;;;;;1.50;0.77;;;10.40;98.20;;;;;;5071673;28;20580;-62
2020/12/29 12:47:26;;;;;;;1.27;0.60;;;10.30;98.30;;;;;;5071773;28;20216;-62
2020/12/29 12:49:52;;;;;;;1.37;0.60;;;10.30;98.50;;;;;;5071431;28;20236;-62
2020/12/29 12:52:18;;;;;;;1.17;0.50;;;10.40;98.70;;;;;;5071295;28;20582;-62
2020/12/29 12:54:44;;;;;;;1.20;0.50;;;10.50;98.50;;;;;;5071062;28;20237;-62